sensor_id;sensor_type;location;lat;lon;timestamp;pressure;altitude;pressure_sealevel;temperature;humidity
17936;BME280;9093;52.062;4.508;2023-07-08T00:02:17;102015.41;;;21.51;56.23
17936;BME280;9093;52.062;4.508;2023-07-08T00:04:57;102007.53;;;21.48;56.26
17936;BME280;9093;52.062;4.508;2023-07-08T00:07:38;102004.94;;;21.46;56.30
17936;BME280;9093;52.062;4.508;2023-07-08T00:10:24;102001.63;;;21.43;56.38
17936;BME280;9093;52.062;4.508;2023-07-08T00:13:05;102000.88;;;21.41;56.44
17936;BME280;9093;52.062;4.508;2023-07-08T00:15:45;102001.00;;;21.39;56.42
17936;BME280;9093;52.062;4.508;2023-07-08T00:18:25;101998.38;;;21.38;56.38
17936;BME280;9093;52.062;4.508;2023-07-08T00:21:14;101995.06;;;21.34;56.46
17936;BME280;9093;52.062;4.508;2023-07-08T00:23:57;101996.03;;;21.33;56.57
17936;BME280;9093;52.062;4.508;2023-07-08T00:26:38;101996.16;;;21.32;56.45
17936;BME280;9093;52.062;4.508;2023-07-08T00:29:18;101986.44;;;21.29;56.60
17936;BME280;9093;52.062;4.508;2023-07-08T00:31:58;101998.28;;;21.28;56.43
17936;BME280;9093;52.062;4.508;2023-07-08T00:34:39;101998.50;;;21.25;56.30
17936;BME280;9093;52.062;4.508;2023-07-08T00:37:19;102000.50;;;21.23;56.74
17936;BME280;9093;52.062;4.508;2023-07-08T00:40:00;102000.75;;;21.20;56.45
17936;BME280;9093;52.062;4.508;2023-07-08T00:42:42;101986.44;;;21.18;56.56
17936;BME280;9093;52.062;4.508;2023-07-08T00:45:37;101989.34;;;21.15;56.33
17936;BME280;9093;52.062;4.508;2023-07-08T00:48:22;101992.06;;;21.15;56.51
17936;BME280;9093;52.062;4.508;2023-07-08T00:51:03;101977.72;;;21.13;56.53
17936;BME280;9093;52.062;4.508;2023-07-08T00:53:44;101975.16;;;21.11;56.44
17936;BME280;9093;52.062;4.508;2023-07-08T00:56:35;101981.69;;;21.09;56.91
17936;BME280;9093;52.062;4.508;2023-07-08T00:59:28;101972.78;;;21.07;56.68
17936;BME280;9093;52.062;4.508;2023-07-08T01:02:11;101963.94;;;21.05;56.61
17936;BME280;9093;52.062;4.508;2023-07-08T01:05:22;101961.31;;;21.03;56.71
17936;BME280;9093;52.062;4.508;2023-07-08T01:08:02;101958.72;;;21.02;56.88
17936;BME280;9093;52.062;4.508;2023-07-08T01:10:51;101971.56;;;21.00;57.11
17936;BME280;9093;52.062;4.508;2023-07-08T01:13:37;101968.13;;;20.98;56.77
17936;BME280;9093;52.062;4.508;2023-07-08T01:16:20;101969.31;;;20.94;57.12
17936;BME280;9093;52.062;4.508;2023-07-08T01:19:02;101975.03;;;20.91;57.06
17936;BME280;9093;52.062;4.508;2023-07-08T01:21:46;101967.25;;;20.86;56.86
17936;BME280;9093;52.062;4.508;2023-07-08T01:24:27;101959.22;;;20.84;56.86
17936;BME280;9093;52.062;4.508;2023-07-08T01:27:12;101965.63;;;20.83;57.19
17936;BME280;9093;52.062;4.508;2023-07-08T01:29:53;101963.91;;;20.82;57.09
17936;BME280;9093;52.062;4.508;2023-07-08T01:32:36;101967.84;;;20.78;57.08
17936;BME280;9093;52.062;4.508;2023-07-08T01:35:17;101961.66;;;20.76;57.32
17936;BME280;9093;52.062;4.508;2023-07-08T01:38:00;101962.66;;;20.75;56.97
17936;BME280;9093;52.062;4.508;2023-07-08T01:40:49;101955.63;;;20.73;57.21
17936;BME280;9093;52.062;4.508;2023-07-08T01:43:30;101961.16;;;20.71;57.23
17936;BME280;9093;52.062;4.508;2023-07-08T01:46:17;101961.16;;;20.71;57.00
17936;BME280;9093;52.062;4.508;2023-07-08T01:48:59;101950.53;;;20.68;57.32
17936;BME280;9093;52.062;4.508;2023-07-08T01:51:40;101958.69;;;20.68;57.21
17936;BME280;9093;52.062;4.508;2023-07-08T01:54:21;101950.81;;;20.65;57.37
17936;BME280;9093;52.062;4.508;2023-07-08T01:57:01;101951.88;;;20.63;56.79
17936;BME280;9093;52.062;4.508;2023-07-08T01:59:42;101945.84;;;20.59;57.25
17936;BME280;9093;52.062;4.508;2023-07-08T02:02:23;101939.56;;;20.59;57.12
17936;BME280;9093;52.062;4.508;2023-07-08T02:05:04;101935.13;;;20.58;57.39
17936;BME280;9093;52.062;4.508;2023-07-08T02:07:44;101936.97;;;20.57;57.18
17936;BME280;9093;52.062;4.508;2023-07-08T02:10:25;101935.22;;;20.56;57.38
17936;BME280;9093;52.062;4.508;2023-07-08T02:13:05;101930.78;;;20.55;57.38
17936;BME280;9093;52.062;4.508;2023-07-08T02:15:46;101935.47;;;20.53;57.32
17936;BME280;9093;52.062;4.508;2023-07-08T02:18:26;101926.59;;;20.51;57.36
17936;BME280;9093;52.062;4.508;2023-07-08T02:21:06;101926.84;;;20.48;57.30
17936;BME280;9093;52.062;4.508;2023-07-08T02:23:49;101925.13;;;20.47;57.38
17936;BME280;9093;52.062;4.508;2023-07-08T02:26:30;101923.50;;;20.44;57.49
17936;BME280;9093;52.062;4.508;2023-07-08T02:29:12;101922.63;;;20.44;57.46
17936;BME280;9093;52.062;4.508;2023-07-08T02:31:52;101918.44;;;20.40;57.65
17936;BME280;9093;52.062;4.508;2023-07-08T02:34:32;101915.94;;;20.37;57.34
17936;BME280;9093;52.062;4.508;2023-07-08T02:37:13;101906.94;;;20.36;57.43
17936;BME280;9093;52.062;4.508;2023-07-08T02:39:53;101907.19;;;20.33;57.71
17936;BME280;9093;52.062;4.508;2023-07-08T02:42:33;101907.28;;;20.32;57.69
17936;BME280;9093;52.062;4.508;2023-07-08T02:45:15;101905.53;;;20.31;57.59
17936;BME280;9093;52.062;4.508;2023-07-08T02:47:55;101902.22;;;20.27;57.71
17936;BME280;9093;52.062;4.508;2023-07-08T02:50:36;101903.94;;;20.28;57.76
17936;BME280;9093;52.062;4.508;2023-07-08T02:53:16;101900.59;;;20.25;57.63
17936;BME280;9093;52.062;4.508;2023-07-08T02:55:57;101902.69;;;20.21;57.63
17936;BME280;9093;52.062;4.508;2023-07-08T02:58:37;101907.25;;;20.21;57.60
17936;BME280;9093;52.062;4.508;2023-07-08T03:01:17;101911.81;;;20.20;57.72
17936;BME280;9093;52.062;4.508;2023-07-08T03:03:58;101903.78;;;20.19;57.87
17936;BME280;9093;52.062;4.508;2023-07-08T03:06:41;101914.88;;;20.16;58.10
17936;BME280;9093;52.062;4.508;2023-07-08T03:09:22;101902.53;;;20.12;58.21
17936;BME280;9093;52.062;4.508;2023-07-08T03:12:02;101906.25;;;20.11;58.17
17936;BME280;9093;52.062;4.508;2023-07-08T03:14:42;101908.19;;;20.08;58.17
17936;BME280;9093;52.062;4.508;2023-07-08T03:17:23;101898.34;;;20.07;58.08
17936;BME280;9093;52.062;4.508;2023-07-08T03:20:04;101899.31;;;20.06;58.02
17936;BME280;9093;52.062;4.508;2023-07-08T03:22:46;101912.97;;;20.05;58.14
17936;BME280;9093;52.062;4.508;2023-07-08T03:25:26;101910.41;;;20.03;58.15
17936;BME280;9093;52.062;4.508;2023-07-08T03:28:06;101914.31;;;19.99;58.15
17936;BME280;9093;52.062;4.508;2023-07-08T03:30:51;101918.00;;;19.98;58.46
17936;BME280;9093;52.062;4.508;2023-07-08T03:33:32;101909.16;;;19.96;58.33
17936;BME280;9093;52.062;4.508;2023-07-08T03:36:15;101918.34;;;19.94;58.50
17936;BME280;9093;52.062;4.508;2023-07-08T03:39:02;101918.47;;;19.92;58.56
17936;BME280;9093;52.062;4.508;2023-07-08T03:41:43;101926.59;;;19.92;58.63
17936;BME280;9093;52.062;4.508;2023-07-08T03:44:24;101927.81;;;19.88;58.69
17936;BME280;9093;52.062;4.508;2023-07-08T03:47:04;101919.94;;;19.85;58.68
17936;BME280;9093;52.062;4.508;2023-07-08T03:49:44;101920.06;;;19.84;58.82
17936;BME280;9093;52.062;4.508;2023-07-08T03:52:25;101917.44;;;19.82;59.02
17936;BME280;9093;52.062;4.508;2023-07-08T03:55:05;101924.81;;;19.80;58.93
17936;BME280;9093;52.062;4.508;2023-07-08T03:57:46;101924.81;;;19.80;58.96
17936;BME280;9093;52.062;4.508;2023-07-08T04:00:26;101927.78;;;19.77;58.72
17936;BME280;9093;52.062;4.508;2023-07-08T04:03:10;101917.03;;;19.76;58.98
17936;BME280;9093;52.062;4.508;2023-07-08T04:05:51;101927.03;;;19.75;59.15
17936;BME280;9093;52.062;4.508;2023-07-08T04:08:31;101922.72;;;19.73;59.12
17936;BME280;9093;52.062;4.508;2023-07-08T04:11:17;101920.97;;;19.72;58.97
17936;BME280;9093;52.062;4.508;2023-07-08T04:13:57;101918.38;;;19.70;59.01
17936;BME280;9093;52.062;4.508;2023-07-08T04:19:28;101925.00;;;19.66;59.18
17936;BME280;9093;52.062;4.508;2023-07-08T04:22:08;101924.25;;;19.64;59.16
17936;BME280;9093;52.062;4.508;2023-07-08T04:24:48;101935.09;;;19.64;59.11
17936;BME280;9093;52.062;4.508;2023-07-08T04:27:29;101930.53;;;19.64;59.42
17936;BME280;9093;52.062;4.508;2023-07-08T04:30:29;101935.09;;;19.64;59.31
17936;BME280;9093;52.062;4.508;2023-07-08T04:33:11;101928.91;;;19.62;59.24
17936;BME280;9093;52.062;4.508;2023-07-08T04:35:52;101940.72;;;19.61;59.39
17936;BME280;9093;52.062;4.508;2023-07-08T04:38:34;101940.72;;;19.61;59.40
17936;BME280;9093;52.062;4.508;2023-07-08T04:41:16;101924.59;;;19.59;59.83
17936;BME280;9093;52.062;4.508;2023-07-08T04:43:58;101926.31;;;19.60;59.63
17936;BME280;9093;52.062;4.508;2023-07-08T04:46:48;101929.03;;;19.60;59.85
17936;BME280;9093;52.062;4.508;2023-07-08T04:49:30;101941.59;;;19.61;59.61
17936;BME280;9093;52.062;4.508;2023-07-08T04:52:13;101941.72;;;19.60;60.03
17936;BME280;9093;52.062;4.508;2023-07-08T04:54:53;101943.44;;;19.61;59.92
17936;BME280;9093;52.062;4.508;2023-07-08T04:57:34;101940.00;;;19.59;59.91
17936;BME280;9093;52.062;4.508;2023-07-08T05:00:16;101939.03;;;19.60;59.88
17936;BME280;9093;52.062;4.508;2023-07-08T05:02:57;101942.69;;;19.59;60.26
17936;BME280;9093;52.062;4.508;2023-07-08T05:05:37;101935.56;;;19.58;60.06
17936;BME280;9093;52.062;4.508;2023-07-08T05:08:17;101928.19;;;19.60;60.18
17936;BME280;9093;52.062;4.508;2023-07-08T05:10:58;101929.88;;;19.61;60.27
17936;BME280;9093;52.062;4.508;2023-07-08T05:13:39;101919.06;;;19.61;59.99
17936;BME280;9093;52.062;4.508;2023-07-08T05:16:20;101924.47;;;19.61;60.31
17936;BME280;9093;52.062;4.508;2023-07-08T05:19:00;101930.75;;;19.61;60.41
17936;BME280;9093;52.062;4.508;2023-07-08T05:21:41;101925.34;;;19.61;60.63
17936;BME280;9093;52.062;4.508;2023-07-08T05:24:23;101927.19;;;19.61;60.47
17936;BME280;9093;52.062;4.508;2023-07-08T05:27:03;101930.66;;;19.63;60.33
17936;BME280;9093;52.062;4.508;2023-07-08T05:29:46;101929.69;;;19.64;60.59
17936;BME280;9093;52.062;4.508;2023-07-08T05:32:26;101927.84;;;19.64;60.49
17936;BME280;9093;52.062;4.508;2023-07-08T05:35:07;101924.25;;;19.64;60.82
17936;BME280;9093;52.062;4.508;2023-07-08T05:37:47;101922.31;;;19.66;60.85
17936;BME280;9093;52.062;4.508;2023-07-08T05:40:28;101922.31;;;19.66;60.90
17936;BME280;9093;52.062;4.508;2023-07-08T05:43:08;101919.72;;;19.64;60.97
17936;BME280;9093;52.062;4.508;2023-07-08T05:45:49;101920.44;;;19.66;60.99
17936;BME280;9093;52.062;4.508;2023-07-08T05:48:30;101921.28;;;19.67;61.01
17936;BME280;9093;52.062;4.508;2023-07-08T05:51:10;101923.91;;;19.68;61.15
17936;BME280;9093;52.062;4.508;2023-07-08T05:53:50;101916.63;;;19.69;61.03
17936;BME280;9093;52.062;4.508;2023-07-08T05:56:30;101925.53;;;19.71;61.03
17936;BME280;9093;52.062;4.508;2023-07-08T05:59:11;101925.41;;;19.73;61.32
17936;BME280;9093;52.062;4.508;2023-07-08T06:01:52;101929.72;;;19.75;61.01
17936;BME280;9093;52.062;4.508;2023-07-08T06:04:32;101928.00;;;19.74;61.17
17936;BME280;9093;52.062;4.508;2023-07-08T06:07:13;101932.44;;;19.75;61.22
17936;BME280;9093;52.062;4.508;2023-07-08T06:09:53;101926.03;;;19.76;61.43
17936;BME280;9093;52.062;4.508;2023-07-08T06:12:36;101934.06;;;19.78;61.22
17936;BME280;9093;52.062;4.508;2023-07-08T06:15:16;101915.09;;;19.78;61.55
17936;BME280;9093;52.062;4.508;2023-07-08T06:17:57;101928.50;;;19.79;61.46
17936;BME280;9093;52.062;4.508;2023-07-08T06:20:40;101924.81;;;19.80;61.84
17936;BME280;9093;52.062;4.508;2023-07-08T06:23:21;101926.56;;;19.81;61.69
17936;BME280;9093;52.062;4.508;2023-07-08T06:26:01;101922.88;;;19.82;61.59
17936;BME280;9093;52.062;4.508;2023-07-08T06:28:42;101921.78;;;19.85;61.64
17936;BME280;9093;52.062;4.508;2023-07-08T06:31:22;101921.78;;;19.85;61.94
17936;BME280;9093;52.062;4.508;2023-07-08T06:34:03;101918.94;;;19.86;61.88
17936;BME280;9093;52.062;4.508;2023-07-08T06:36:44;101916.13;;;19.88;61.72
17936;BME280;9093;52.062;4.508;2023-07-08T06:39:24;101911.56;;;19.88;61.75
17936;BME280;9093;52.062;4.508;2023-07-08T06:42:05;101913.28;;;19.89;62.05
17936;BME280;9093;52.062;4.508;2023-07-08T06:44:46;101914.06;;;19.91;61.89
17936;BME280;9093;52.062;4.508;2023-07-08T06:47:30;101924.75;;;19.93;62.11
17936;BME280;9093;52.062;4.508;2023-07-08T06:50:11;101918.34;;;19.94;62.25
17936;BME280;9093;52.062;4.508;2023-07-08T06:52:51;101916.50;;;19.94;62.16
17936;BME280;9093;52.062;4.508;2023-07-08T06:55:31;101917.28;;;19.96;62.26
17936;BME280;9093;52.062;4.508;2023-07-08T06:58:12;101922.44;;;19.99;62.12
17936;BME280;9093;52.062;4.508;2023-07-08T07:00:53;101913.22;;;20.02;62.44
17936;BME280;9093;52.062;4.508;2023-07-08T07:03:33;101916.69;;;20.04;62.51
17936;BME280;9093;52.062;4.508;2023-07-08T07:06:14;101919.25;;;20.05;62.42
17936;BME280;9093;52.062;4.508;2023-07-08T07:08:54;101915.56;;;20.06;62.47
17936;BME280;9093;52.062;4.508;2023-07-08T07:11:34;101917.09;;;20.11;62.51
17936;BME280;9093;52.062;4.508;2023-07-08T07:14:15;101908.81;;;20.12;62.67
17936;BME280;9093;52.062;4.508;2023-07-08T07:16:55;101916.72;;;20.15;62.64
17936;BME280;9093;52.062;4.508;2023-07-08T07:19:35;101907.72;;;20.15;62.57
17936;BME280;9093;52.062;4.508;2023-07-08T07:22:16;101904.75;;;20.18;62.90
17936;BME280;9093;52.062;4.508;2023-07-08T07:24:56;101891.19;;;20.18;62.66
17936;BME280;9093;52.062;4.508;2023-07-08T07:27:37;101888.28;;;20.21;62.84
17936;BME280;9093;52.062;4.508;2023-07-08T07:30:17;101896.16;;;20.24;63.09
17936;BME280;9093;52.062;4.508;2023-07-08T07:33:00;101895.16;;;20.25;63.07
17936;BME280;9093;52.062;4.508;2023-07-08T07:35:43;101903.19;;;20.26;63.13
17936;BME280;9093;52.062;4.508;2023-07-08T07:38:23;101897.66;;;20.28;63.09
17936;BME280;9093;52.062;4.508;2023-07-08T07:41:08;101901.09;;;20.30;63.23
17936;BME280;9093;52.062;4.508;2023-07-08T07:43:50;101902.84;;;20.31;63.16
17936;BME280;9093;52.062;4.508;2023-07-08T07:46:31;101897.22;;;20.34;63.40
17936;BME280;9093;52.062;4.508;2023-07-08T07:49:11;101896.97;;;20.37;63.09
17936;BME280;9093;52.062;4.508;2023-07-08T07:51:51;101886.88;;;20.39;63.21
17936;BME280;9093;52.062;4.508;2023-07-08T07:54:32;101884.91;;;20.41;63.43
17936;BME280;9093;52.062;4.508;2023-07-08T07:57:12;101883.91;;;20.42;63.42
17936;BME280;9093;52.062;4.508;2023-07-08T07:59:52;101885.63;;;20.43;63.33
17936;BME280;9093;52.062;4.508;2023-07-08T08:02:32;101887.13;;;20.47;63.53
17936;BME280;9093;52.062;4.508;2023-07-08T08:05:13;101899.47;;;20.51;63.33
17936;BME280;9093;52.062;4.508;2023-07-08T08:07:53;101903.66;;;20.55;63.65
17936;BME280;9093;52.062;4.508;2023-07-08T08:10:34;101908.97;;;20.57;63.48
17936;BME280;9093;52.062;4.508;2023-07-08T08:13:14;101914.28;;;20.58;63.21
17936;BME280;9093;52.062;4.508;2023-07-08T08:15:56;101917.75;;;20.60;63.50
17936;BME280;9093;52.062;4.508;2023-07-08T08:18:37;101914.75;;;20.63;63.57
17936;BME280;9093;52.062;4.508;2023-07-08T08:21:17;101918.22;;;20.65;63.34
17936;BME280;9093;52.062;4.508;2023-07-08T08:23:58;101917.97;;;20.68;63.47
17936;BME280;9093;52.062;4.508;2023-07-08T08:26:40;101929.59;;;20.70;63.32
17936;BME280;9093;52.062;4.508;2023-07-08T08:29:21;101921.22;;;20.73;63.46
17936;BME280;9093;52.062;4.508;2023-07-08T08:32:02;101916.38;;;20.77;63.54
17936;BME280;9093;52.062;4.508;2023-07-08T08:34:42;101912.59;;;20.79;63.34
17936;BME280;9093;52.062;4.508;2023-07-08T08:37:24;101912.44;;;20.81;63.64
17936;BME280;9093;52.062;4.508;2023-07-08T08:40:06;101911.22;;;20.85;63.64
17936;BME280;9093;52.062;4.508;2023-07-08T08:42:52;101911.94;;;20.87;63.73
17936;BME280;9093;52.062;4.508;2023-07-08T08:45:43;101915.28;;;20.91;63.53
17936;BME280;9093;52.062;4.508;2023-07-08T08:48:30;101922.31;;;20.93;63.37
17936;BME280;9093;52.062;4.508;2023-07-08T08:51:13;101923.94;;;20.96;63.68
17936;BME280;9093;52.062;4.508;2023-07-08T08:53:56;101919.25;;;20.98;63.89
17936;BME280;9093;52.062;4.508;2023-07-08T09:02:59;101914.78;;;21.08;63.44
17936;BME280;9093;52.062;4.508;2023-07-08T09:05:45;101900.81;;;21.12;63.78
17936;BME280;9093;52.062;4.508;2023-07-08T09:08:33;101905.94;;;21.17;63.61
17936;BME280;9093;52.062;4.508;2023-07-08T09:14:00;101902.47;;;21.26;63.60
17936;BME280;9093;52.062;4.508;2023-07-08T09:16:51;101905.66;;;21.31;63.45
17936;BME280;9093;52.062;4.508;2023-07-08T09:19:39;101912.56;;;21.35;63.67
17936;BME280;9093;52.062;4.508;2023-07-08T09:22:31;101916.75;;;21.39;63.45
17936;BME280;9093;52.062;4.508;2023-07-08T09:25:37;101914.66;;;21.43;63.52
17936;BME280;9093;52.062;4.508;2023-07-08T09:28:19;101917.00;;;21.47;63.70
17936;BME280;9093;52.062;4.508;2023-07-08T09:30:59;101918.47;;;21.51;63.50
17936;BME280;9093;52.062;4.508;2023-07-08T09:33:40;101919.97;;;21.55;63.71
17936;BME280;9093;52.062;4.508;2023-07-08T09:36:24;101914.25;;;21.58;63.60
17936;BME280;9093;52.062;4.508;2023-07-08T09:39:10;101908.06;;;21.67;63.74
17936;BME280;9093;52.062;4.508;2023-07-08T09:41:50;101910.97;;;21.76;63.49
17936;BME280;9093;52.062;4.508;2023-07-08T09:44:32;101907.91;;;21.80;63.43
17936;BME280;9093;52.062;4.508;2023-07-08T09:47:22;101910.22;;;21.85;63.51
17936;BME280;9093;52.062;4.508;2023-07-08T09:50:06;101912.41;;;21.91;63.48
17936;BME280;9093;52.062;4.508;2023-07-08T09:52:57;101916.59;;;21.95;63.51
17936;BME280;9093;52.062;4.508;2023-07-08T09:55:40;101908.97;;;22.00;63.66
17936;BME280;9093;52.062;4.508;2023-07-08T09:58:24;101911.16;;;22.06;63.66
17936;BME280;9093;52.062;4.508;2023-07-08T10:01:10;101909.03;;;22.10;63.48
17936;BME280;9093;52.062;4.508;2023-07-08T10:03:58;101908.78;;;22.13;63.59
17936;BME280;9093;52.062;4.508;2023-07-08T10:06:39;101904.78;;;22.17;63.43
17936;BME280;9093;52.062;4.508;2023-07-08T10:09:24;101910.28;;;22.26;63.43
17936;BME280;9093;52.062;4.508;2023-07-08T10:12:06;101903.19;;;22.35;63.52
17936;BME280;9093;52.062;4.508;2023-07-08T10:14:52;101898.34;;;22.38;63.01
17936;BME280;9093;52.062;4.508;2023-07-08T10:17:39;101901.53;;;22.43;63.18
17936;BME280;9093;52.062;4.508;2023-07-08T10:20:21;101910.75;;;22.52;63.17
17936;BME280;9093;52.062;4.508;2023-07-08T10:23:20;101911.34;;;22.56;62.83
17936;BME280;9093;52.062;4.508;2023-07-08T10:26:26;101898.22;;;22.61;62.94
17936;BME280;9093;52.062;4.508;2023-07-08T10:35:33;101910.69;;;22.84;62.94
17936;BME280;9093;52.062;4.508;2023-07-08T10:41:01;101908.13;;;22.92;62.99
17936;BME280;9093;52.062;4.508;2023-07-08T10:49:23;101922.53;;;23.04;62.79
17936;BME280;9093;52.062;4.508;2023-07-08T10:55:11;101910.66;;;23.14;62.35
17936;BME280;9093;52.062;4.508;2023-07-08T11:03:55;101918.34;;;23.40;61.73
17936;BME280;9093;52.062;4.508;2023-07-08T11:06:55;101912.31;;;23.46;61.98
17936;BME280;9093;52.062;4.508;2023-07-08T11:09:52;101912.66;;;23.52;61.52
17936;BME280;9093;52.062;4.508;2023-07-08T11:12:40;101905.50;;;23.61;61.20
17936;BME280;9093;52.062;4.508;2023-07-08T11:15:28;101913.00;;;23.69;61.08
17936;BME280;9093;52.062;4.508;2023-07-08T11:18:31;101906.25;;;23.82;61.05
17936;BME280;9093;52.062;4.508;2023-07-08T11:21:20;101911.00;;;23.90;60.76
17936;BME280;9093;52.062;4.508;2023-07-08T11:24:15;101911.28;;;23.96;60.83
17936;BME280;9093;52.062;4.508;2023-07-08T11:27:07;101899.81;;;24.02;60.21
17936;BME280;9093;52.062;4.508;2023-07-08T11:29:59;101899.78;;;24.12;60.43
17936;BME280;9093;52.062;4.508;2023-07-08T11:32:45;101896.38;;;24.20;60.31
17936;BME280;9093;52.062;4.508;2023-07-08T11:38:19;101894.22;;;24.33;60.50
17936;BME280;9093;52.062;4.508;2023-07-08T11:41:04;101899.50;;;24.44;60.16
17936;BME280;9093;52.062;4.508;2023-07-08T11:44:04;101888.25;;;24.47;60.02
17936;BME280;9093;52.062;4.508;2023-07-08T11:46:55;101889.13;;;24.57;59.99
17936;BME280;9093;52.062;4.508;2023-07-08T11:49:36;101892.41;;;24.61;60.16
17936;BME280;9093;52.062;4.508;2023-07-08T11:52:18;101886.53;;;24.65;60.32
17936;BME280;9093;52.062;4.508;2023-07-08T11:55:03;101887.34;;;24.75;59.92
17936;BME280;9093;52.062;4.508;2023-07-08T11:57:53;101887.13;;;24.87;60.08
17936;BME280;9093;52.062;4.508;2023-07-08T12:00:37;101888.41;;;25.02;59.77
17936;BME280;9093;52.062;4.508;2023-07-08T12:03:20;101882.88;;;25.11;59.39
17936;BME280;9093;52.062;4.508;2023-07-08T12:06:01;101877.84;;;25.16;59.73
17936;BME280;9093;52.062;4.508;2023-07-08T12:08:46;101879.41;;;25.19;59.44
17936;BME280;9093;52.062;4.508;2023-07-08T12:11:31;101873.31;;;25.25;59.43
17936;BME280;9093;52.062;4.508;2023-07-08T12:14:11;101872.72;;;25.31;59.34
17936;BME280;9093;52.062;4.508;2023-07-08T12:16:52;101875.06;;;25.44;58.96
17936;BME280;9093;52.062;4.508;2023-07-08T12:19:32;101871.00;;;25.57;58.71
17936;BME280;9093;52.062;4.508;2023-07-08T12:22:15;101875.59;;;25.57;58.78
17936;BME280;9093;52.062;4.508;2023-07-08T12:24:55;101875.13;;;25.61;59.00
17936;BME280;9093;52.062;4.508;2023-07-08T12:27:38;101872.25;;;25.63;58.46
17936;BME280;9093;52.062;4.508;2023-07-08T12:30:18;101866.47;;;25.66;58.42
17936;BME280;9093;52.062;4.508;2023-07-08T12:33:00;101870.44;;;25.72;58.32
17936;BME280;9093;52.062;4.508;2023-07-08T12:35:41;101864.03;;;25.81;58.19
17936;BME280;9093;52.062;4.508;2023-07-08T12:38:42;101861.72;;;25.86;58.46
17936;BME280;9093;52.062;4.508;2023-07-08T12:41:28;101861.94;;;25.92;58.05
17936;BME280;9093;52.062;4.508;2023-07-08T12:44:23;101863.47;;;25.95;58.10
17936;BME280;9093;52.062;4.508;2023-07-08T12:47:04;101863.00;;;25.99;57.90
17936;BME280;9093;52.062;4.508;2023-07-08T12:49:44;101866.97;;;26.05;57.35
17936;BME280;9093;52.062;4.508;2023-07-08T12:52:25;101860.91;;;26.11;57.38
17936;BME280;9093;52.062;4.508;2023-07-08T12:55:07;101861.94;;;26.18;57.40
17936;BME280;9093;52.062;4.508;2023-07-08T12:57:49;101858.75;;;26.23;57.66
17936;BME280;9093;52.062;4.508;2023-07-08T13:00:34;101858.38;;;26.35;56.57
17936;BME280;9093;52.062;4.508;2023-07-08T13:03:19;101853.97;;;26.42;56.38
17936;BME280;9093;52.062;4.508;2023-07-08T13:06:02;101859.09;;;26.46;56.73
17936;BME280;9093;52.062;4.508;2023-07-08T13:08:43;101850.94;;;26.54;56.78
17936;BME280;9093;52.062;4.508;2023-07-08T13:11:24;101854.78;;;26.61;56.59
17936;BME280;9093;52.062;4.508;2023-07-08T13:14:05;101856.16;;;26.65;56.15
17936;BME280;9093;52.062;4.508;2023-07-08T13:16:46;101856.00;;;26.66;55.96
17936;BME280;9093;52.062;4.508;2023-07-08T13:19:29;101853.78;;;26.70;55.88
17936;BME280;9093;52.062;4.508;2023-07-08T13:22:16;101850.06;;;26.79;55.59
17936;BME280;9093;52.062;4.508;2023-07-08T13:25:02;101850.59;;;26.82;55.49
17936;BME280;9093;52.062;4.508;2023-07-08T13:27:54;101849.25;;;26.87;55.25
17936;BME280;9093;52.062;4.508;2023-07-08T13:30:35;101846.56;;;26.95;55.36
17936;BME280;9093;52.062;4.508;2023-07-08T13:33:16;101855.72;;;27.11;54.83
17936;BME280;9093;52.062;4.508;2023-07-08T13:35:57;101853.69;;;27.21;54.44
17936;BME280;9093;52.062;4.508;2023-07-08T13:38:39;101863.97;;;27.19;54.71
17936;BME280;9093;52.062;4.508;2023-07-08T13:41:23;101856.94;;;27.17;54.76
17936;BME280;9093;52.062;4.508;2023-07-08T13:44:08;101855.25;;;27.24;54.27
17936;BME280;9093;52.062;4.508;2023-07-08T13:46:54;101861.06;;;27.21;54.18
17936;BME280;9093;52.062;4.508;2023-07-08T13:49:43;101865.16;;;27.17;54.10
17936;BME280;9093;52.062;4.508;2023-07-08T13:52:24;101871.81;;;27.14;54.32
17936;BME280;9093;52.062;4.508;2023-07-08T13:55:15;101863.25;;;27.09;54.39
17936;BME280;9093;52.062;4.508;2023-07-08T13:58:01;101867.66;;;27.02;54.50
17936;BME280;9093;52.062;4.508;2023-07-08T14:00:42;101866.59;;;26.95;54.65
17936;BME280;9093;52.062;4.508;2023-07-08T14:03:22;101877.56;;;26.95;54.69
17936;BME280;9093;52.062;4.508;2023-07-08T14:06:03;101871.78;;;27.06;54.24
17936;BME280;9093;52.062;4.508;2023-07-08T14:08:43;101875.13;;;27.18;53.70
17936;BME280;9093;52.062;4.508;2023-07-08T14:11:24;101869.84;;;27.33;53.06
17936;BME280;9093;52.062;4.508;2023-07-08T14:14:04;101867.31;;;27.47;52.94
17936;BME280;9093;52.062;4.508;2023-07-08T14:16:49;101868.56;;;27.53;52.22
17936;BME280;9093;52.062;4.508;2023-07-08T14:19:32;101863.78;;;27.55;51.82
17936;BME280;9093;52.062;4.508;2023-07-08T14:24:55;101864.78;;;27.54;52.47
17936;BME280;9093;52.062;4.508;2023-07-08T14:27:36;101863.41;;;27.58;52.32
17936;BME280;9093;52.062;4.508;2023-07-08T14:30:16;101865.84;;;27.61;52.60
17936;BME280;9093;52.062;4.508;2023-07-08T14:32:57;101864.13;;;27.68;52.11
17936;BME280;9093;52.062;4.508;2023-07-08T14:35:38;101861.75;;;27.73;52.05
17936;BME280;9093;52.062;4.508;2023-07-08T14:38:19;101864.81;;;27.78;52.09
17936;BME280;9093;52.062;4.508;2023-07-08T14:41:00;101860.72;;;27.74;52.16
17936;BME280;9093;52.062;4.508;2023-07-08T14:43:40;101861.75;;;27.73;52.18
17936;BME280;9093;52.062;4.508;2023-07-08T14:46:21;101861.19;;;27.70;52.24
17936;BME280;9093;52.062;4.508;2023-07-08T14:49:11;101867.22;;;27.65;52.35
17936;BME280;9093;52.062;4.508;2023-07-08T14:51:54;101865.69;;;27.63;52.30
17936;BME280;9093;52.062;4.508;2023-07-08T14:54:35;101861.69;;;27.57;52.41
17936;BME280;9093;52.062;4.508;2023-07-08T14:57:15;101860.66;;;27.50;52.74
17936;BME280;9093;52.062;4.508;2023-07-08T14:59:57;101863.34;;;27.42;52.98
17936;BME280;9093;52.062;4.508;2023-07-08T15:02:40;101874.13;;;27.35;52.91
17936;BME280;9093;52.062;4.508;2023-07-08T15:05:23;101866.41;;;27.31;53.04